San Francisco, California
Traffic Map
Current Weather Conditions
San Francisco, California
Broken Clouds
Broken Clouds
75°
Feels Like: 75°
Wind Chill: 75° Ceiling: 5000
Heat Index: 75° Visibility: 10mi
Dew Point: 58° Wind: 12mph
Humidity: 55% Direction: 230° (SW)
Pressure: 30.07in Gusts: 0mph
Raw Report DataKSFO 221956Z 23010KT 10SM FEW031 BKN050 24/14 A3007 RMK AO2 SLP183 T02390144 $
Traffic Incident Summary
Active as of:
Severity:
Category:
InformationThere was an issue retrieving the traffic information for this location. Please try a different location or try again shortly.
Advertisements
Track Severe Weather on mobile